createdAt,value
2018-12-21T00:01:33.262Z,17.17
2018-12-21T00:04:02.728Z,16.55
2018-12-21T00:06:32.141Z,20.87
2018-12-21T00:09:01.548Z,23.62
2018-12-21T00:11:31.011Z,18.73
2018-12-21T00:14:00.416Z,22.93
2018-12-21T00:16:29.971Z,17.73
2018-12-21T00:18:59.569Z,18.40
2018-12-21T00:21:29.077Z,18.85
2018-12-21T00:23:58.533Z,20.77
2018-12-21T00:26:27.964Z,15.80
2018-12-21T00:28:57.417Z,18.60
2018-12-21T00:31:32.079Z,17.48
2018-12-21T00:34:06.803Z,24.37
2018-12-21T00:36:41.481Z,22.98
2018-12-21T00:39:16.102Z,20.53
2018-12-21T00:41:44.654Z,20.32
2018-12-21T00:44:19.449Z,19.07
2018-12-21T00:46:54.119Z,19.05
2018-12-21T00:49:23.627Z,23.10
2018-12-21T00:51:53.056Z,21.85
2018-12-21T00:54:22.530Z,19.90
2018-12-21T00:56:53.036Z,16.32
2018-12-21T00:59:23.385Z,17.17
2018-12-21T01:01:52.903Z,22.37
2018-12-21T01:04:22.530Z,21.50
2018-12-21T01:06:52.172Z,19.15
2018-12-21T01:09:21.655Z,21.95
2018-12-21T01:11:51.218Z,17.87
2018-12-21T01:14:20.842Z,25.48
2018-12-21T01:16:50.360Z,24.77
2018-12-21T01:19:19.846Z,19.82
2018-12-21T01:21:49.463Z,15.70
2018-12-21T01:24:18.954Z,19.35
2018-12-21T01:26:48.373Z,23.02
2018-12-21T01:29:17.804Z,22.55
2018-12-21T01:31:47.234Z,20.17
2018-12-21T01:34:16.663Z,19.10
2018-12-21T01:36:46.113Z,25.45
2018-12-21T01:39:15.572Z,18.47
2018-12-21T01:41:45.048Z,17.02
2018-12-21T01:47:10.013Z,21.15
2018-12-21T01:49:39.549Z,17.30
2018-12-21T01:52:09.038Z,21.25
2018-12-21T01:54:38.461Z,22.93
2018-12-21T01:57:07.848Z,23.45
2018-12-21T01:59:37.376Z,17.50
2018-12-21T02:02:06.949Z,22.42
2018-12-21T02:04:36.337Z,23.52
2018-12-21T02:07:06.749Z,24.25
2018-12-21T02:09:36.142Z,20.15
2018-12-21T02:12:05.655Z,20.07
2018-12-21T02:14:35.192Z,20.92
2018-12-21T02:17:04.637Z,21.60
2018-12-21T02:19:35.150Z,23.27
2018-12-21T02:22:04.584Z,19.15
2018-12-21T02:27:01.709Z,18.98
2018-12-21T02:29:31.109Z,19.65
2018-12-21T02:32:00.587Z,19.80
2018-12-21T02:36:56.222Z,21.17
2018-12-21T02:39:25.613Z,16.77
2018-12-21T02:41:55.077Z,22.58
2018-12-21T02:44:24.519Z,18.53
2018-12-21T02:46:53.902Z,18.60
2018-12-21T02:49:23.323Z,16.37
2018-12-21T02:51:53.034Z,24.40
2018-12-21T02:54:22.461Z,20.37
2018-12-21T02:56:51.926Z,18.60
2018-12-21T02:59:21.372Z,17.60
2018-12-21T03:01:50.900Z,15.13
2018-12-21T03:04:20.329Z,20.23
2018-12-21T03:06:49.806Z,18.57
2018-12-21T03:09:19.233Z,22.40
2018-12-21T03:14:45.180Z,18.48
2018-12-21T03:17:14.784Z,17.87
2018-12-21T03:19:44.219Z,20.08
2018-12-21T03:22:15.036Z,17.70
2018-12-21T03:24:44.742Z,20.20
2018-12-21T03:27:14.194Z,17.48
2018-12-21T03:29:43.620Z,16.73
2018-12-21T03:32:13.026Z,24.83
2018-12-21T03:34:42.524Z,17.17
2018-12-21T03:37:12.066Z,17.65
2018-12-21T03:39:41.491Z,20.02
2018-12-21T03:42:10.916Z,16.65
2018-12-21T03:44:40.666Z,17.15
2018-12-21T03:47:10.102Z,19.25
2018-12-21T03:49:39.509Z,14.35
2018-12-21T03:52:10.098Z,22.80
2018-12-21T03:54:39.510Z,15.72
2018-12-21T03:57:09.158Z,17.80
2018-12-21T03:59:38.591Z,15.93
2018-12-21T04:02:07.981Z,16.90
2018-12-21T04:04:38.664Z,18.12
2018-12-21T04:07:08.074Z,17.48
2018-12-21T04:12:34.979Z,17.77
2018-12-21T04:15:04.971Z,16.55
2018-12-21T04:17:34.530Z,18.60
2018-12-21T04:20:04.239Z,17.05
2018-12-21T04:22:34.260Z,18.17
2018-12-21T04:25:04.157Z,14.05
2018-12-21T04:27:33.617Z,15.32
2018-12-21T04:33:08.426Z,12.53
2018-12-21T04:35:37.825Z,15.70
2018-12-21T04:38:07.315Z,11.25
2018-12-21T04:40:36.820Z,10.82
2018-12-21T04:43:06.213Z,15.68
2018-12-21T04:45:35.646Z,13.60
2018-12-21T04:48:05.314Z,13.75
2018-12-21T04:50:34.834Z,15.80
2018-12-21T04:53:04.365Z,11.93
2018-12-21T04:55:34.797Z,19.70
2018-12-21T04:58:04.404Z,10.82
2018-12-21T05:00:33.818Z,9.58
2018-12-21T05:03:06.997Z,10.65
2018-12-21T05:05:36.349Z,12.68
2018-12-21T05:08:05.742Z,10.58
2018-12-21T05:10:35.787Z,13.88
2018-12-21T05:13:05.463Z,9.17
2018-12-21T05:15:34.886Z,12.80
2018-12-21T05:18:05.013Z,11.30
2018-12-21T05:20:34.471Z,12.53
2018-12-21T05:23:03.982Z,10.80
2018-12-21T05:25:33.372Z,11.85
2018-12-21T05:28:02.864Z,20.05
2018-12-21T05:30:32.248Z,13.25
2018-12-21T05:33:02.480Z,9.50
2018-12-21T05:35:31.858Z,8.83
2018-12-21T05:38:01.206Z,18.17
2018-12-21T05:40:30.755Z,18.25
2018-12-21T05:43:00.153Z,11.50
2018-12-21T05:45:29.549Z,12.13
2018-12-21T05:47:58.985Z,8.78
2018-12-21T05:50:28.388Z,9.97
2018-12-21T05:53:00.902Z,8.60
2018-12-21T05:55:29.231Z,8.95
2018-12-21T05:57:58.574Z,8.00
2018-12-21T06:00:27.945Z,9.40
2018-12-21T06:02:57.384Z,11.55
2018-12-21T06:05:26.781Z,10.65
2018-12-21T06:07:56.266Z,10.98
2018-12-21T06:10:25.678Z,8.33
2018-12-21T06:12:55.034Z,14.20
2018-12-21T06:15:24.433Z,10.80
2018-12-21T06:17:53.867Z,11.90
2018-12-21T06:20:23.286Z,9.07
2018-12-21T06:22:52.654Z,8.95
2018-12-21T06:25:22.115Z,7.50
2018-12-21T06:27:51.530Z,7.83
2018-12-21T06:30:20.900Z,7.20
2018-12-21T06:32:50.293Z,11.78
2018-12-21T06:35:19.643Z,9.33
2018-12-21T06:37:49.054Z,7.15
2018-12-21T06:40:19.336Z,7.58
2018-12-21T06:42:50.729Z,7.00
2018-12-21T06:45:20.117Z,6.58
2018-12-21T06:47:49.509Z,10.15
2018-12-21T06:50:18.876Z,11.75
2018-12-21T06:52:48.364Z,8.37
2018-12-21T06:55:17.772Z,12.88
2018-12-21T06:57:47.109Z,8.93
2018-12-21T07:00:16.848Z,7.92
2018-12-21T07:02:46.204Z,8.95
2018-12-21T07:05:15.560Z,8.77
2018-12-21T07:07:44.985Z,13.93
2018-12-21T07:10:14.365Z,8.53
2018-12-21T07:12:43.753Z,8.57
2018-12-21T07:15:13.385Z,7.72
2018-12-21T07:17:42.841Z,11.12
2018-12-21T07:20:12.294Z,5.67
2018-12-21T07:22:41.725Z,7.53
2018-12-21T07:25:11.077Z,11.17
2018-12-21T07:27:40.433Z,7.78
2018-12-21T07:30:12.492Z,8.28
2018-12-21T07:32:42.015Z,8.25
2018-12-21T07:35:15.997Z,6.00
2018-12-21T07:37:45.411Z,9.28
2018-12-21T07:40:15.041Z,7.75
2018-12-21T07:42:44.421Z,5.30
2018-12-21T07:45:13.990Z,7.55
2018-12-21T07:47:43.385Z,10.35
2018-12-21T07:50:12.965Z,10.83
2018-12-21T07:52:42.365Z,8.63
2018-12-21T07:55:11.903Z,6.30
2018-12-21T07:57:41.277Z,5.80
2018-12-21T08:00:12.661Z,5.40
2018-12-21T08:02:42.046Z,9.73
2018-12-21T08:05:11.437Z,10.28
2018-12-21T08:07:40.858Z,4.75
2018-12-21T08:10:18.608Z,6.93
2018-12-21T08:12:48.021Z,10.50
2018-12-21T08:15:17.453Z,7.13
2018-12-21T08:17:47.396Z,6.25
2018-12-21T08:20:17.183Z,7.17
2018-12-21T08:22:46.516Z,3.87
2018-12-21T08:25:16.019Z,6.87
2018-12-21T08:27:45.537Z,5.67
2018-12-21T08:30:14.917Z,14.33
2018-12-21T08:32:44.362Z,6.22
2018-12-21T08:35:13.730Z,12.95
2018-12-21T08:37:43.107Z,7.05
2018-12-21T08:40:12.615Z,4.67
2018-12-21T08:42:42.005Z,5.77
2018-12-21T08:45:11.663Z,6.35
2018-12-21T08:47:41.094Z,5.77
2018-12-21T08:50:12.476Z,5.35
2018-12-21T08:55:47.921Z,7.90
2018-12-21T08:58:17.313Z,6.90
2018-12-21T09:00:46.822Z,5.08
2018-12-21T09:03:16.247Z,5.12
2018-12-21T09:05:45.613Z,8.10
2018-12-21T09:08:15.003Z,6.00
2018-12-21T09:10:44.484Z,6.17
2018-12-21T09:13:14.009Z,9.18
2018-12-21T09:15:43.421Z,5.12
2018-12-21T09:18:12.954Z,3.47
2018-12-21T09:20:42.428Z,4.65
2018-12-21T09:23:11.874Z,10.80
2018-12-21T09:25:41.375Z,4.22
2018-12-21T09:28:10.797Z,9.30
2018-12-21T09:30:40.148Z,3.53
2018-12-21T09:33:09.589Z,5.08
2018-12-21T09:35:39.042Z,2.60
2018-12-21T09:38:08.402Z,3.90
2018-12-21T09:40:38.184Z,8.58
2018-12-21T09:46:03.272Z,3.42
2018-12-21T09:48:32.617Z,5.67
2018-12-21T09:51:01.993Z,5.20
2018-12-21T09:53:31.406Z,2.42
2018-12-21T09:56:00.768Z,5.75
2018-12-21T09:58:30.139Z,8.20
2018-12-21T10:00:59.618Z,7.20
2018-12-21T10:03:29.182Z,10.82
2018-12-21T10:05:58.781Z,3.00
2018-12-21T10:08:28.164Z,4.72
2018-12-21T10:10:57.613Z,4.40
2018-12-21T10:13:27.049Z,5.10
2018-12-21T10:15:56.488Z,3.77
2018-12-21T10:18:25.920Z,5.05
2018-12-21T10:20:55.356Z,4.10
2018-12-21T10:23:24.832Z,5.87
2018-12-21T10:25:54.240Z,8.35
2018-12-21T10:28:23.598Z,2.05
2018-12-21T10:30:52.997Z,2.60
2018-12-21T10:33:22.418Z,3.30
2018-12-21T10:35:51.758Z,5.58
2018-12-21T10:38:21.149Z,6.00
2018-12-21T10:40:50.519Z,3.20
2018-12-21T10:43:19.879Z,3.95
2018-12-21T10:45:49.351Z,5.45
2018-12-21T10:48:18.772Z,4.87
2018-12-21T10:50:48.218Z,4.20
2018-12-21T10:53:17.742Z,4.03
2018-12-21T10:55:47.359Z,5.72
2018-12-21T10:58:16.772Z,2.43
2018-12-21T11:00:46.159Z,3.50
2018-12-21T11:03:15.698Z,3.25
2018-12-21T11:05:45.230Z,7.33
2018-12-21T11:08:14.603Z,5.78
2018-12-21T11:10:45.873Z,5.63
2018-12-21T11:13:15.452Z,7.12
2018-12-21T11:15:45.672Z,7.75
2018-12-21T11:18:15.075Z,5.20
2018-12-21T11:20:44.425Z,6.20
2018-12-21T11:23:14.030Z,4.70
2018-12-21T11:25:43.662Z,10.48
2018-12-21T11:28:13.104Z,2.75
2018-12-21T11:30:42.460Z,4.05
2018-12-21T11:33:11.849Z,7.10
2018-12-21T11:35:41.212Z,3.92
2018-12-21T11:38:10.591Z,9.13
2018-12-21T11:40:39.997Z,5.00
2018-12-21T11:43:09.439Z,4.37
2018-12-21T11:45:38.849Z,3.60
2018-12-21T11:48:08.399Z,6.83
2018-12-21T11:50:37.761Z,3.35
2018-12-21T11:53:07.227Z,3.30
2018-12-21T11:55:36.635Z,4.17
2018-12-21T11:58:06.066Z,8.25
2018-12-21T12:00:35.449Z,3.95
2018-12-21T12:03:04.953Z,4.87
2018-12-21T12:05:34.377Z,6.08
2018-12-21T12:08:03.832Z,6.37
2018-12-21T12:10:33.185Z,4.43
2018-12-21T12:13:02.559Z,7.67
2018-12-21T12:15:32.050Z,7.40
2018-12-21T12:18:01.399Z,2.50
2018-12-21T12:20:30.774Z,19.40
2018-12-21T12:23:00.232Z,5.40
2018-12-21T12:28:45.199Z,4.00
2018-12-21T12:31:14.734Z,6.60
2018-12-21T12:33:44.800Z,1.62
2018-12-21T12:36:14.965Z,3.70
2018-12-21T12:42:13.317Z,1.60
2018-12-21T12:44:43.168Z,2.33
2018-12-21T12:47:12.865Z,1.70
2018-12-21T12:53:03.712Z,2.67
2018-12-21T12:55:39.673Z,1.62
2018-12-21T12:58:19.651Z,4.00
2018-12-21T13:01:03.056Z,5.25
2018-12-21T13:03:39.500Z,2.17
2018-12-21T13:06:20.131Z,4.28
2018-12-21T13:12:15.516Z,2.20
2018-12-21T13:21:14.414Z,2.42
2018-12-21T13:23:44.152Z,6.35
2018-12-21T13:26:15.699Z,3.75
2018-12-21T13:28:48.784Z,3.30
2018-12-21T13:31:43.182Z,4.40
2018-12-21T13:37:32.350Z,5.50
2018-12-21T14:02:16.645Z,0.90
2018-12-21T14:04:46.141Z,4.47
2018-12-21T14:07:15.658Z,1.02
2018-12-21T14:25:07.450Z,2.80
2018-12-21T14:27:42.548Z,2.62
2018-12-21T14:33:17.350Z,1.90
2018-12-21T14:35:46.812Z,4.00
2018-12-21T14:38:16.325Z,1.00
2018-12-21T14:40:45.814Z,1.32
2018-12-21T14:43:15.258Z,3.52
2018-12-21T14:46:09.528Z,1.80
2018-12-21T14:48:52.016Z,1.60
2018-12-21T14:54:27.541Z,1.40
2018-12-21T14:57:03.842Z,3.27
2018-12-21T14:59:34.336Z,3.80
2018-12-21T15:02:03.907Z,2.10
2018-12-21T15:25:52.097Z,3.50
2018-12-21T16:23:55.865Z,1.85
2018-12-21T16:45:15.838Z,2.62
2018-12-21T16:48:47.383Z,1.85
2018-12-21T16:51:25.052Z,2.35
2018-12-21T16:54:00.298Z,1.70
2018-12-21T17:00:43.087Z,3.08
2018-12-21T17:03:21.034Z,4.20
2018-12-21T17:10:22.666Z,4.87
2018-12-21T17:13:04.228Z,5.50
2018-12-21T17:19:27.461Z,5.35
2018-12-21T17:22:01.481Z,6.50
2018-12-21T17:24:43.352Z,10.15
2018-12-21T17:27:19.099Z,7.10
2018-12-21T17:29:54.290Z,10.30
2018-12-21T18:19:39.342Z,8.80
2018-12-21T18:22:15.529Z,15.98
2018-12-21T18:25:00.353Z,7.27
2018-12-21T19:12:15.609Z,6.10
2018-12-21T19:14:45.597Z,9.00
2018-12-21T19:17:15.253Z,8.78
2018-12-21T20:13:40.913Z,9.40
2018-12-21T20:16:18.085Z,14.68
2018-12-21T21:03:10.329Z,3.98
2018-12-21T21:12:15.024Z,3.98
2018-12-21T21:14:44.473Z,5.40
2018-12-21T21:17:13.943Z,10.48
2018-12-21T21:19:43.396Z,6.90
2018-12-21T21:22:12.839Z,6.67
2018-12-21T21:24:42.298Z,7.22
2018-12-21T21:27:11.797Z,9.38
2018-12-21T21:29:41.701Z,7.78
2018-12-21T21:32:12.278Z,12.95
